createdAt,value
2022-12-11T00:01:00.908Z,21.8
2022-12-11T00:02:02.849Z,21.7
2022-12-11T00:03:05.762Z,21.7
2022-12-11T00:04:11.264Z,21.9
2022-12-11T00:05:13.745Z,21.8
2022-12-11T00:06:16.235Z,21.8
2022-12-11T00:07:18.714Z,21.7
2022-12-11T00:08:20.922Z,21.6
2022-12-11T00:09:23.529Z,22.1
2022-12-11T00:10:26.119Z,21.6
2022-12-11T00:11:28.616Z,21.8
2022-12-11T00:12:30.250Z,21.9
2022-12-11T00:13:32.461Z,22.3
2022-12-11T00:14:34.944Z,21.9
2022-12-11T00:15:37.392Z,21.6
2022-12-11T00:16:39.899Z,21.8
2022-12-11T00:17:42.649Z,21.8
2022-12-11T00:18:44.875Z,22
2022-12-11T00:19:47.361Z,22
2022-12-11T00:20:49.837Z,21.9
2022-12-11T00:21:52.316Z,22
2022-12-11T00:22:54.536Z,22.1
2022-12-11T00:23:57.095Z,21.9
2022-12-11T00:24:59.594Z,21.9
2022-12-11T00:26:02.165Z,22
2022-12-11T00:27:04.150Z,21.9
2022-12-11T00:28:06.357Z,21.9
2022-12-11T00:29:08.266Z,22
2022-12-11T00:30:10.469Z,22.1
2022-12-11T00:31:12.666Z,22
2022-12-11T00:32:15.190Z,22
2022-12-11T00:33:17.900Z,21.9
2022-12-11T00:34:20.380Z,22.1
2022-12-11T00:35:22.575Z,21.8
2022-12-11T00:36:24.774Z,22
2022-12-11T00:37:26.736Z,22.1
2022-12-11T00:38:29.445Z,22
2022-12-11T00:39:31.659Z,22.1
2022-12-11T00:40:34.169Z,22
2022-12-11T00:41:36.760Z,22.1
2022-12-11T00:42:38.704Z,22.3
2022-12-11T00:43:40.905Z,21.9
2022-12-11T00:44:43.387Z,22.1
2022-12-11T00:45:45.662Z,22
2022-12-11T00:46:48.498Z,22
2022-12-11T00:47:50.964Z,22.3
2022-12-11T00:48:53.445Z,22
2022-12-11T00:49:55.403Z,22
2022-12-11T00:50:57.620Z,22.3
2022-12-11T00:51:59.814Z,22.1
2022-12-11T00:53:02.308Z,22.3
2022-12-11T00:54:04.511Z,22.2
2022-12-11T00:55:07.046Z,22.1
2022-12-11T00:56:11.354Z,22.3
2022-12-11T00:57:13.912Z,21.9
2022-12-11T00:58:16.430Z,22.3
2022-12-11T00:59:18.643Z,22.2
2022-12-11T01:00:20.847Z,22.2
2022-12-11T01:01:23.408Z,22.2
2022-12-11T01:02:26.045Z,22.1
2022-12-11T01:03:28.871Z,22.2
2022-12-11T01:04:31.357Z,22.3
2022-12-11T01:05:33.833Z,22.3
2022-12-11T01:06:36.047Z,22.4
2022-12-11T01:07:38.223Z,22.3
2022-12-11T01:08:40.714Z,22.3
2022-12-11T01:09:42.943Z,22.1
2022-12-11T01:10:45.472Z,22.4
2022-12-11T01:11:48.028Z,21.9
2022-12-11T01:12:50.594Z,22.2
2022-12-11T01:13:52.808Z,22.2
2022-12-11T01:14:55.014Z,22.1
2022-12-11T01:15:57.509Z,22.2
2022-12-11T01:17:00.058Z,22.3
2022-12-11T01:18:02.833Z,22.2
2022-12-11T01:19:05.309Z,22.2
2022-12-11T01:20:07.501Z,22.2
2022-12-11T01:21:09.989Z,22.3
2022-12-11T01:22:12.461Z,22.3
2022-12-11T01:23:14.665Z,22.1
2022-12-11T01:24:17.144Z,22.2
2022-12-11T01:25:19.625Z,22.2
2022-12-11T01:26:21.843Z,22.4
2022-12-11T01:27:24.359Z,22.3
2022-12-11T01:28:26.953Z,22.2
2022-12-11T01:29:29.459Z,22.4
2022-12-11T01:30:31.946Z,22.3
2022-12-11T01:31:34.563Z,22.3
2022-12-11T01:32:36.746Z,22.4
2022-12-11T01:33:39.237Z,22.3
2022-12-11T01:34:41.725Z,22.5
2022-12-11T01:35:44.219Z,22.5
2022-12-11T01:36:46.415Z,22.4
2022-12-11T01:37:48.889Z,22.2
2022-12-11T01:38:50.798Z,22.2
2022-12-11T01:39:53.279Z,22.3
2022-12-11T01:40:55.227Z,22.1
2022-12-11T01:41:57.151Z,22.2
2022-12-11T01:42:58.833Z,22.3
2022-12-11T01:44:01.416Z,22.2
2022-12-11T01:45:03.614Z,22.4
2022-12-11T01:46:05.579Z,22.3
2022-12-11T01:47:08.306Z,22.3
2022-12-11T01:48:10.508Z,22.3
2022-12-11T01:49:12.719Z,22.4
2022-12-11T01:50:15.198Z,22.2
2022-12-11T01:51:17.678Z,22.3
2022-12-11T01:52:20.161Z,22.4
2022-12-11T01:53:22.639Z,22.4
2022-12-11T01:54:25.109Z,22.4
2022-12-11T01:55:27.593Z,22.4
2022-12-11T01:56:29.792Z,22.4
2022-12-11T01:57:31.718Z,22.5
2022-12-11T01:58:34.215Z,22.3
2022-12-11T01:59:36.785Z,22.4
2022-12-11T02:00:39.265Z,22.4
2022-12-11T02:01:41.194Z,22.4
2022-12-11T02:02:43.848Z,22.1
2022-12-11T02:03:46.014Z,22.3
2022-12-11T02:04:48.206Z,22.2
2022-12-11T02:05:50.409Z,22.2
2022-12-11T02:06:52.899Z,22.2
2022-12-11T02:07:55.392Z,22.4
2022-12-11T02:08:57.836Z,22.6
2022-12-11T02:10:00.315Z,22.3
2022-12-11T02:11:02.522Z,22.5
2022-12-11T02:12:04.733Z,22.4
2022-12-11T02:13:07.205Z,22.2
2022-12-11T02:14:09.710Z,22.3
2022-12-11T02:15:12.627Z,22.2
2022-12-11T02:16:15.638Z,22.4
2022-12-11T02:17:17.842Z,22.3
2022-12-11T02:18:20.049Z,22.3
2022-12-11T02:19:22.525Z,22.4
2022-12-11T02:20:25.010Z,22.3
2022-12-11T02:21:27.479Z,22.4
2022-12-11T02:22:29.978Z,22.5
2022-12-11T02:23:32.213Z,22.6
2022-12-11T02:24:34.442Z,22.5
2022-12-11T02:25:36.918Z,22.4
2022-12-11T02:26:39.395Z,22.4
2022-12-11T02:27:41.604Z,22.4
2022-12-11T02:28:44.083Z,22.2
2022-12-11T02:29:46.603Z,22.3
2022-12-11T02:30:49.176Z,22.3
2022-12-11T02:31:51.724Z,22.3
2022-12-11T02:32:54.525Z,22.5
2022-12-11T02:33:57.006Z,22.2
2022-12-11T02:34:59.207Z,22.3
2022-12-11T02:36:01.129Z,22.4
2022-12-11T02:37:03.644Z,22.3
2022-12-11T02:38:05.839Z,22.3
2022-12-11T02:39:08.055Z,22.4
2022-12-11T02:40:10.521Z,22.5
2022-12-11T02:41:13.018Z,22.3
2022-12-11T02:42:15.208Z,22.5
2022-12-11T02:43:17.393Z,22.3
2022-12-11T02:44:19.863Z,22.5
2022-12-11T02:45:22.366Z,22.5
2022-12-11T02:46:24.924Z,22.5
2022-12-11T02:47:27.418Z,22.3
2022-12-11T02:48:29.341Z,22.5
2022-12-11T02:49:31.821Z,22.6
2022-12-11T02:50:34.307Z,22.4
2022-12-11T02:51:36.784Z,22.5
2022-12-11T02:52:38.713Z,22.5
2022-12-11T02:53:40.905Z,22.4
2022-12-11T02:54:43.381Z,22.5
2022-12-11T02:55:45.311Z,22.5
2022-12-11T02:56:47.797Z,22.6
2022-12-11T02:57:50.036Z,22.4
2022-12-11T02:58:56.884Z,22.5
2022-12-11T02:59:56.957Z,22.4
2022-12-11T03:00:59.224Z,22.2
2022-12-11T03:02:02.301Z,22.4
2022-12-11T03:03:04.791Z,22.3
2022-12-11T03:04:07.277Z,22.4
2022-12-11T03:05:09.987Z,22.3
2022-12-11T03:06:14.045Z,22.4
2022-12-11T03:07:16.246Z,22.3
2022-12-11T03:08:18.850Z,22.3
2022-12-11T03:09:21.465Z,22.3
2022-12-11T03:10:23.943Z,22.2
2022-12-11T03:11:26.420Z,22.5
2022-12-11T03:12:28.635Z,22.5
2022-12-11T03:13:31.111Z,22.4
2022-12-11T03:14:33.316Z,22.1
2022-12-11T03:15:35.799Z,22.4
2022-12-11T03:16:38.367Z,22.4
2022-12-11T03:17:41.586Z,22.5
2022-12-11T03:18:43.782Z,22.3
2022-12-11T03:19:45.990Z,22.3
2022-12-11T03:20:48.465Z,22.3
2022-12-11T03:21:50.669Z,22.2
2022-12-11T03:22:53.135Z,22.3
2022-12-11T03:23:55.355Z,22.3
2022-12-11T03:24:57.847Z,22.2
2022-12-11T03:26:00.322Z,22.4
2022-12-11T03:27:04.490Z,22.3
2022-12-11T03:28:07.498Z,22.3
2022-12-11T03:29:09.992Z,22.2
2022-12-11T03:30:11.918Z,22.4
2022-12-11T03:31:13.915Z,22.2
2022-12-11T03:32:16.715Z,22.2
2022-12-11T03:33:19.284Z,22.2
2022-12-11T03:34:21.791Z,22.3
2022-12-11T03:35:24.271Z,22.2
2022-12-11T03:36:26.757Z,22.3
2022-12-11T03:37:29.239Z,22
2022-12-11T03:38:31.450Z,22.3
2022-12-11T03:39:33.925Z,22.2
2022-12-11T03:40:36.410Z,22.3
2022-12-11T03:41:38.880Z,22.3
2022-12-11T03:42:41.370Z,22.1
2022-12-11T03:43:43.847Z,22.2
2022-12-11T03:44:46.053Z,22.2
2022-12-11T03:45:48.580Z,22.2
2022-12-11T03:46:51.371Z,22.2
2022-12-11T03:47:53.876Z,22.2
2022-12-11T03:48:56.425Z,22.2
2022-12-11T03:49:58.928Z,22.3
2022-12-11T03:51:01.408Z,22.2
2022-12-11T03:52:03.630Z,22.2
2022-12-11T03:53:06.125Z,22.2
2022-12-11T03:54:08.330Z,22.2
2022-12-11T03:55:10.708Z,22.3
2022-12-11T03:56:14.547Z,22.3
2022-12-11T03:57:17.024Z,22.2
2022-12-11T03:58:19.559Z,22.3
2022-12-11T03:59:21.740Z,22
2022-12-11T04:00:23.943Z,22.1
2022-12-11T04:01:26.438Z,22
2022-12-11T04:02:29.303Z,22.2
2022-12-11T04:03:31.800Z,22.2
2022-12-11T04:04:34.371Z,22.1
2022-12-11T04:05:37.106Z,22.2
2022-12-11T04:06:39.586Z,22.1
2022-12-11T04:07:42.080Z,22.1
2022-12-11T04:08:44.530Z,22.2
2022-12-11T04:09:46.734Z,22.1
2022-12-11T04:10:48.918Z,22.1
2022-12-11T04:11:51.094Z,22.1
2022-12-11T04:12:53.581Z,22.2
2022-12-11T04:13:55.223Z,22.2
2022-12-11T04:14:57.430Z,22.2
2022-12-11T04:15:59.929Z,22.1
2022-12-11T04:17:02.419Z,22.2
2022-12-11T04:18:04.896Z,22.2
2022-12-11T04:19:07.398Z,22.2
2022-12-11T04:20:09.950Z,22
2022-12-11T04:21:12.153Z,22.2
2022-12-11T04:22:14.103Z,22.3
2022-12-11T04:23:16.306Z,22.1
2022-12-11T04:24:18.782Z,22.1
2022-12-11T04:25:21.258Z,22
2022-12-11T04:26:23.738Z,22.2
2022-12-11T04:27:26.234Z,22.2
2022-12-11T04:28:28.779Z,22.3
2022-12-11T04:29:30.976Z,22
2022-12-11T04:30:34.403Z,22.1
2022-12-11T04:31:37.029Z,22.1
2022-12-11T04:32:39.510Z,22
2022-12-11T04:33:41.993Z,22.3
2022-12-11T04:34:43.957Z,22.2
2022-12-11T04:35:46.545Z,22.2
2022-12-11T04:36:48.744Z,22.3
2022-12-11T04:37:50.944Z,22.1
2022-12-11T04:38:53.426Z,22.1
2022-12-11T04:39:55.904Z,22
2022-12-11T04:40:58.380Z,22.2
2022-12-11T04:42:00.865Z,22.2
2022-12-11T04:43:03.344Z,21.9
2022-12-11T04:44:05.258Z,22
2022-12-11T04:45:07.992Z,22
2022-12-11T04:46:12.389Z,22
2022-12-11T04:47:15.286Z,22.1
2022-12-11T04:48:17.189Z,22
2022-12-11T04:49:19.678Z,21.9
2022-12-11T04:50:21.905Z,22.1
2022-12-11T04:51:24.476Z,22.1
2022-12-11T04:52:26.962Z,22
2022-12-11T04:53:29.171Z,21.8
2022-12-11T04:54:31.643Z,22
2022-12-11T04:55:34.129Z,22
2022-12-11T04:56:36.599Z,22
2022-12-11T04:57:38.257Z,22.1
2022-12-11T04:58:40.733Z,22
2022-12-11T04:59:43.212Z,21.9
2022-12-11T05:00:45.690Z,21.9
2022-12-11T05:01:48.185Z,21.9
2022-12-11T05:02:50.555Z,21.9
2022-12-11T05:03:53.440Z,21.9
2022-12-11T05:04:55.352Z,21.9
2022-12-11T05:05:57.854Z,22.1
2022-12-11T05:07:00.479Z,22.1
2022-12-11T05:08:03.003Z,22
2022-12-11T05:09:05.484Z,22
2022-12-11T05:10:07.959Z,22
2022-12-11T05:11:10.439Z,22
2022-12-11T05:12:12.711Z,22.1
2022-12-11T05:13:15.324Z,21.9
2022-12-11T05:14:17.799Z,22.1
2022-12-11T05:15:20.271Z,22.1
2022-12-11T05:16:22.503Z,22
2022-12-11T05:17:25.324Z,22
2022-12-11T05:18:27.524Z,21.9
2022-12-11T05:19:30.002Z,22
2022-12-11T05:20:32.204Z,22
2022-12-11T05:21:35.273Z,22
2022-12-11T05:22:38.033Z,22
2022-12-11T05:23:40.252Z,22
2022-12-11T05:24:42.451Z,22
2022-12-11T05:25:44.632Z,22
2022-12-11T05:26:47.107Z,22
2022-12-11T05:27:49.307Z,22
2022-12-11T05:28:51.787Z,22
2022-12-11T05:29:59.186Z,22.1
2022-12-11T05:30:59.362Z,22
2022-12-11T05:32:02.038Z,22.1
2022-12-11T05:33:04.509Z,21.9
2022-12-11T05:34:06.720Z,21.9
2022-12-11T05:35:09.552Z,22.1
2022-12-11T05:36:13.229Z,22
2022-12-11T05:37:15.822Z,22
2022-12-11T05:38:18.509Z,22.1
2022-12-11T05:39:20.982Z,21.8
2022-12-11T05:40:23.462Z,22
2022-12-11T05:41:25.943Z,22.1
2022-12-11T05:42:29.065Z,21.9
2022-12-11T05:43:31.423Z,22.1
2022-12-11T05:44:33.622Z,22
2022-12-11T05:45:36.095Z,21.8
2022-12-11T05:46:38.383Z,22
2022-12-11T05:47:41.087Z,22
2022-12-11T05:48:43.285Z,22
2022-12-11T05:49:45.776Z,21.9
2022-12-11T05:50:48.254Z,21.9
2022-12-11T05:51:50.445Z,21.9
2022-12-11T05:52:52.958Z,21.9
2022-12-11T05:53:55.709Z,22
2022-12-11T05:54:58.204Z,21.8
2022-12-11T05:56:00.688Z,22
2022-12-11T05:57:02.890Z,21.9
2022-12-11T05:58:04.792Z,22.1
2022-12-11T05:59:07.273Z,22
2022-12-11T06:00:09.474Z,22
2022-12-11T06:01:11.962Z,22
2022-12-11T06:02:14.564Z,21.9
2022-12-11T06:03:18.042Z,21.9
2022-12-11T06:04:20.441Z,22
2022-12-11T06:05:22.922Z,21.9
2022-12-11T06:06:25.402Z,21.9
2022-12-11T06:07:27.598Z,21.9
2022-12-11T06:08:30.095Z,22
2022-12-11T06:09:32.657Z,22.1
2022-12-11T06:10:35.135Z,22
2022-12-11T06:11:37.613Z,22
2022-12-11T06:12:40.089Z,21.9
2022-12-11T06:13:42.573Z,21.8
2022-12-11T06:14:44.745Z,21.9
2022-12-11T06:15:47.231Z,21.9
2022-12-11T06:16:49.487Z,21.9
2022-12-11T06:17:52.035Z,22
2022-12-11T06:18:57.943Z,21.8
2022-12-11T06:19:59.200Z,22
2022-12-11T06:21:01.414Z,21.9
2022-12-11T06:22:03.890Z,21.9
2022-12-11T06:23:06.093Z,21.8
2022-12-11T06:24:08.121Z,22.1
2022-12-11T06:25:11.161Z,21.9
2022-12-11T06:26:15.009Z,22
2022-12-11T06:27:17.488Z,22
2022-12-11T06:28:19.671Z,21.9
2022-12-11T06:29:22.154Z,21.9
2022-12-11T06:30:37.425Z,22
2022-12-11T06:31:29.677Z,21.9
2022-12-11T06:32:32.368Z,21.9
2022-12-11T06:33:34.849Z,21.9
2022-12-11T06:34:36.824Z,21.9
2022-12-11T06:35:42.193Z,21.8
2022-12-11T06:36:44.284Z,21.8
2022-12-11T06:37:46.785Z,21.9
2022-12-11T06:38:48.982Z,21.9
2022-12-11T06:39:51.301Z,21.9
2022-12-11T06:40:53.856Z,21.8
2022-12-11T06:41:56.333Z,22
2022-12-11T06:42:58.534Z,21.9
2022-12-11T06:44:01.021Z,21.9
2022-12-11T06:45:03.219Z,22
2022-12-11T06:46:05.759Z,22.1
2022-12-11T06:47:08.708Z,21.9
2022-12-11T06:48:11.185Z,21.9
2022-12-11T06:49:13.385Z,21.8
2022-12-11T06:50:15.852Z,22
2022-12-11T06:51:18.068Z,21.9
2022-12-11T06:52:20.282Z,21.9
2022-12-11T06:53:21.939Z,21.8
2022-12-11T06:54:24.224Z,21.9
2022-12-11T06:55:26.720Z,21.9
2022-12-11T06:56:29.281Z,21.9
2022-12-11T06:57:31.752Z,22
2022-12-11T06:58:34.239Z,21.9
2022-12-11T06:59:36.704Z,21.8
2022-12-11T07:00:38.726Z,21.9
2022-12-11T07:01:41.142Z,21.9
2022-12-11T07:02:43.327Z,21.8
2022-12-11T07:03:45.795Z,21.8
2022-12-11T07:04:51.875Z,21.8
2022-12-11T07:05:52.979Z,21.9
2022-12-11T07:06:55.458Z,21.9
2022-12-11T07:07:57.716Z,21.9
2022-12-11T07:09:00.211Z,21.9
2022-12-11T07:10:07.872Z,21.8
2022-12-11T07:11:07.429Z,21.9
2022-12-11T07:12:10.008Z,21.8
2022-12-11T07:13:12.209Z,21.8
2022-12-11T07:14:14.430Z,21.8
2022-12-11T07:15:16.917Z,21.9
2022-12-11T07:16:19.512Z,21.8
2022-12-11T07:17:22.055Z,21.9
2022-12-11T07:18:24.551Z,21.9
2022-12-11T07:19:26.948Z,21.9
2022-12-11T07:20:29.151Z,21.9
2022-12-11T07:21:31.640Z,21.8
2022-12-11T07:22:34.111Z,21.8
2022-12-11T07:23:36.592Z,21.9
2022-12-11T07:24:38.796Z,21.9
2022-12-11T07:25:40.724Z,21.8
2022-12-11T07:26:43.233Z,22
2022-12-11T07:27:45.810Z,21.8
2022-12-11T07:28:47.475Z,21.9
2022-12-11T07:29:49.986Z,21.8
2022-12-11T07:30:52.465Z,21.7
2022-12-11T07:31:54.737Z,21.9
2022-12-11T07:32:57.170Z,21.8
2022-12-11T07:33:59.938Z,21.8
2022-12-11T07:35:02.157Z,21.9
2022-12-11T07:36:04.647Z,21.8
2022-12-11T07:37:06.554Z,21.8
2022-12-11T07:38:09.023Z,21.9
2022-12-11T07:39:10.954Z,21.9
2022-12-11T07:40:12.918Z,21.7
2022-12-11T07:41:15.390Z,21.8
2022-12-11T07:42:17.915Z,21.7
2022-12-11T07:43:20.467Z,21.9
2022-12-11T07:44:22.695Z,21.8
2022-12-11T07:45:24.912Z,21.7
2022-12-11T07:46:27.399Z,21.9
2022-12-11T07:47:29.877Z,21.8
2022-12-11T07:48:32.348Z,21.7
2022-12-11T07:49:34.285Z,21.9
2022-12-11T07:50:39.867Z,21.8
2022-12-11T07:51:41.756Z,21.7
2022-12-11T07:52:43.679Z,21.8
2022-12-11T07:53:45.875Z,21.8
2022-12-11T07:54:48.363Z,21.8
2022-12-11T07:55:50.572Z,21.7
2022-12-11T07:56:53.817Z,21.7
2022-12-11T07:57:56.322Z,21.7
2022-12-11T07:58:59.125Z,21.7
2022-12-11T08:00:00.774Z,21.6
2022-12-11T08:01:03.338Z,21.6
2022-12-11T08:02:06.186Z,21.8
2022-12-11T08:03:08.702Z,21.8
2022-12-11T08:04:11.198Z,21.8
2022-12-11T08:05:13.884Z,21.8
2022-12-11T08:06:16.242Z,21.8
2022-12-11T08:07:18.452Z,21.7
2022-12-11T08:08:20.444Z,21.7
2022-12-11T08:09:23.284Z,21.8
2022-12-11T08:10:25.276Z,21.7
2022-12-11T08:11:28.081Z,21.7
2022-12-11T08:12:30.282Z,21.8
2022-12-11T08:13:32.798Z,21.6
2022-12-11T08:14:35.380Z,21.7
2022-12-11T08:15:37.594Z,21.6
2022-12-11T08:16:40.106Z,21.7
2022-12-11T08:17:42.862Z,21.9
2022-12-11T08:18:45.073Z,21.7
2022-12-11T08:19:47.289Z,21.8
2022-12-11T08:20:49.205Z,21.9
2022-12-11T08:21:51.162Z,21.7
2022-12-11T08:22:57.489Z,21.7
2022-12-11T08:23:58.367Z,21.7
2022-12-11T08:25:00.560Z,21.8
2022-12-11T08:26:02.243Z,21.8
2022-12-11T08:27:04.790Z,21.6
2022-12-11T08:28:06.978Z,21.8
2022-12-11T08:29:09.189Z,21.8
2022-12-11T08:30:11.737Z,21.7
2022-12-11T08:31:14.264Z,21.7
2022-12-11T08:32:16.845Z,21.8
2022-12-11T08:33:19.338Z,21.8
2022-12-11T08:34:21.537Z,21.8
2022-12-11T08:35:24.023Z,21.7
2022-12-11T08:36:26.520Z,21.7
2022-12-11T08:37:28.742Z,21.7
2022-12-11T08:38:30.978Z,21.8
2022-12-11T08:39:32.908Z,21.8
2022-12-11T08:40:35.392Z,21.7
2022-12-11T08:41:37.328Z,21.6
2022-12-11T08:42:39.815Z,21.8
2022-12-11T08:43:42.038Z,21.7
2022-12-11T08:44:44.275Z,21.7
2022-12-11T08:45:47.047Z,21.8
2022-12-11T08:46:49.866Z,21.7
2022-12-11T08:47:52.364Z,21.7
2022-12-11T08:48:54.610Z,21.8
2022-12-11T08:49:57.123Z,21.6
2022-12-11T08:50:59.602Z,21.7
2022-12-11T08:52:02.081Z,21.5
2022-12-11T08:53:04.568Z,21.7
2022-12-11T08:54:07.080Z,21.8
2022-12-11T08:55:09.560Z,21.6
2022-12-11T08:56:13.918Z,21.6
2022-12-11T08:57:16.128Z,21.8
2022-12-11T08:58:18.350Z,21.7
2022-12-11T08:59:20.845Z,21.8
2022-12-11T09:00:23.353Z,21.7
2022-12-11T09:01:26.037Z,21.6
2022-12-11T09:02:29.168Z,21.7
2022-12-11T09:03:31.980Z,21.6
2022-12-11T09:04:34.207Z,21.7
2022-12-11T09:05:36.684Z,21.5
2022-12-11T09:06:38.892Z,21.8
2022-12-11T09:07:41.062Z,21.7
2022-12-11T09:08:47.263Z,21.6
2022-12-11T09:09:48.235Z,21.8
2022-12-11T09:10:50.476Z,21.8
2022-12-11T09:11:52.965Z,21.7
2022-12-11T09:12:55.509Z,21.7
2022-12-11T09:14:00.943Z,21.8
2022-12-11T09:15:02.968Z,21.6
2022-12-11T09:16:05.286Z,21.7
2022-12-11T09:17:08.253Z,21.6
2022-12-11T09:18:10.252Z,21.8
2022-12-11T09:19:12.785Z,21.6
2022-12-11T09:20:15.014Z,21.7
2022-12-11T09:21:17.266Z,21.6
2022-12-11T09:22:19.678Z,21.8
2022-12-11T09:23:22.276Z,21.7
2022-12-11T09:24:24.795Z,21.8
2022-12-11T09:25:26.736Z,21.7
2022-12-11T09:26:29.251Z,21.8
2022-12-11T09:27:31.533Z,21.7
2022-12-11T09:28:33.746Z,21.8
2022-12-11T09:29:35.409Z,21.6
2022-12-11T09:30:37.397Z,21.7
2022-12-11T09:31:39.951Z,21.7
2022-12-11T09:32:42.566Z,21.7
2022-12-11T09:33:44.812Z,21.7
2022-12-11T09:34:47.323Z,21.8
2022-12-11T09:35:49.238Z,21.6
2022-12-11T09:36:51.730Z,21.7
2022-12-11T09:37:53.941Z,21.7
2022-12-11T09:38:56.450Z,21.7
2022-12-11T09:40:02.600Z,21.5
2022-12-11T09:41:03.910Z,21.7
2022-12-11T09:42:05.831Z,21.6
2022-12-11T09:43:08.325Z,21.6
2022-12-11T09:44:10.265Z,21.5
2022-12-11T09:45:13.083Z,21.8
2022-12-11T09:46:15.925Z,21.6
2022-12-11T09:47:18.769Z,21.4
2022-12-11T09:48:21.338Z,21.5
2022-12-11T09:49:23.547Z,21.6
2022-12-11T09:50:25.803Z,21.2
2022-12-11T09:51:28.292Z,21.6
2022-12-11T09:52:30.530Z,21.6
2022-12-11T09:53:34.345Z,21.7
2022-12-11T09:54:37.022Z,21.6
2022-12-11T09:55:39.237Z,21.6
2022-12-11T09:56:41.713Z,21.6
2022-12-11T09:57:43.938Z,21.9
2022-12-11T09:58:46.447Z,21.7
2022-12-11T09:59:48.645Z,21.4
2022-12-11T10:00:50.577Z,21.7
2022-12-11T10:01:53.103Z,21.5
2022-12-11T10:02:55.923Z,21.7
2022-12-11T10:03:58.818Z,21.5
2022-12-11T10:05:01.014Z,21.3
2022-12-11T10:06:04.999Z,21.7
2022-12-11T10:07:07.645Z,21.5
2022-12-11T10:08:09.590Z,21.7
2022-12-11T10:09:12.434Z,21.7
2022-12-11T10:10:14.632Z,21.7
2022-12-11T10:11:16.542Z,21.6
2022-12-11T10:12:18.750Z,21.6
2022-12-11T10:13:20.939Z,21.6
2022-12-11T10:14:23.157Z,21.6
2022-12-11T10:15:25.889Z,21.6
2022-12-11T10:16:28.498Z,21.5
2022-12-11T10:17:30.968Z,21.7
2022-12-11T10:18:33.498Z,21.5
2022-12-11T10:19:36.078Z,21.6
2022-12-11T10:20:37.989Z,21.5
2022-12-11T10:21:40.208Z,21.5
2022-12-11T10:22:42.409Z,21.4
2022-12-11T10:23:44.619Z,21.2
2022-12-11T10:25:51.822Z,21.6
2022-12-11T10:26:54.020Z,21.4
2022-12-11T10:27:55.684Z,21.4
2022-12-11T10:28:57.602Z,21.5
2022-12-11T10:29:59.816Z,21.6
2022-12-11T10:31:02.388Z,21.6
2022-12-11T10:32:04.964Z,21.8
2022-12-11T10:33:07.455Z,21.6
2022-12-11T10:34:09.702Z,21.6
2022-12-11T10:35:12.511Z,21.5
2022-12-11T10:36:15.519Z,21.5
2022-12-11T10:37:17.739Z,21.2
2022-12-11T10:38:19.949Z,21.6
2022-12-11T10:39:22.162Z,21.5
2022-12-11T10:40:24.810Z,21.5
2022-12-11T10:41:27.018Z,21.7
2022-12-11T10:42:29.508Z,21.6
2022-12-11T10:43:31.716Z,21.5
2022-12-11T10:44:34.204Z,21.7
2022-12-11T10:45:36.411Z,21.7
2022-12-11T10:46:38.969Z,21.7
2022-12-11T10:47:41.554Z,21.6
2022-12-11T10:48:45.444Z,21.6
2022-12-11T10:49:48.047Z,21.6
2022-12-11T10:50:50.625Z,21.8
2022-12-11T10:51:52.825Z,21.5
2022-12-11T10:52:54.763Z,21.6
2022-12-11T10:53:56.703Z,21.5
2022-12-11T10:55:02.715Z,21.6
2022-12-11T10:56:05.215Z,21.7
2022-12-11T10:57:07.494Z,21.3
2022-12-11T10:58:10.006Z,21.6
2022-12-11T10:59:12.496Z,21.7
2022-12-11T11:00:15.077Z,21.5
2022-12-11T11:01:17.449Z,21.5
2022-12-11T11:02:20.233Z,21.6
2022-12-11T11:03:22.693Z,21.7
2022-12-11T11:04:24.940Z,21.5
2022-12-11T11:05:27.442Z,21.8
2022-12-11T11:06:29.994Z,21.8
2022-12-11T11:07:31.967Z,21.7
2022-12-11T11:08:34.168Z,21.5
2022-12-11T11:09:36.653Z,21.6
2022-12-11T11:10:39.148Z,21.7
2022-12-11T11:11:41.381Z,21.6
2022-12-11T11:12:43.316Z,21.8
2022-12-11T11:13:45.793Z,21.4
2022-12-11T11:14:47.997Z,21.4
2022-12-11T11:15:50.513Z,21.6
2022-12-11T11:16:52.678Z,21.4
2022-12-11T11:17:56.102Z,21.5
2022-12-11T11:18:58.441Z,21.4
2022-12-11T11:20:00.642Z,21.4
2022-12-11T11:21:03.155Z,21.5
2022-12-11T11:22:05.721Z,21.4
2022-12-11T11:23:07.657Z,21.4
2022-12-11T11:24:10.161Z,21.6
2022-12-11T11:25:12.320Z,21.4
2022-12-11T11:26:15.633Z,21.5
2022-12-11T11:27:17.833Z,21.4
2022-12-11T11:28:19.771Z,21.5
2022-12-11T11:29:21.987Z,21.4
2022-12-11T11:30:24.495Z,21.4
2022-12-11T11:31:27.036Z,21.5
2022-12-11T11:32:29.777Z,21.3
2022-12-11T11:33:31.994Z,21.4
2022-12-11T11:34:34.467Z,21.5
2022-12-11T11:35:39.014Z,21.6
2022-12-11T11:36:41.652Z,21.5
2022-12-11T11:37:44.240Z,21.4
2022-12-11T11:38:46.721Z,21.5
2022-12-11T11:39:48.661Z,21.5
2022-12-11T11:40:51.143Z,21.3
2022-12-11T11:41:53.625Z,21.4
2022-12-11T11:42:56.116Z,21.5
2022-12-11T11:43:58.592Z,21.4
2022-12-11T11:45:00.529Z,21.4
2022-12-11T11:46:02.749Z,21.4
2022-12-11T11:47:05.521Z,21.6
2022-12-11T11:48:11.215Z,21.3
2022-12-11T11:49:12.696Z,21.4
2022-12-11T11:50:14.604Z,21.4
2022-12-11T11:51:16.811Z,21.6
2022-12-11T11:52:19.335Z,21.4
2022-12-11T11:53:22.011Z,21.5
2022-12-11T11:54:24.207Z,21.4
2022-12-11T11:55:26.409Z,21.6
2022-12-11T11:56:28.622Z,21.5
2022-12-11T11:57:31.111Z,21.6
2022-12-11T11:58:33.595Z,21.5
2022-12-11T11:59:35.828Z,21.5
2022-12-11T12:00:37.741Z,21.6
2022-12-11T12:01:40.245Z,21.5
2022-12-11T12:02:42.779Z,21.5
2022-12-11T12:03:45.175Z,21.6
2022-12-11T12:04:47.359Z,21.4
2022-12-11T12:05:49.587Z,21.3
2022-12-11T12:06:51.815Z,21.4
2022-12-11T12:07:54.344Z,21.5
2022-12-11T12:08:57.106Z,21.5
2022-12-11T12:09:59.081Z,21.5
2022-12-11T12:11:01.335Z,21.4
2022-12-11T12:12:03.532Z,21.5
2022-12-11T12:13:10.835Z,21.5
2022-12-11T12:14:29.031Z,21.6
2022-12-11T12:15:15.976Z,21.5
2022-12-11T12:16:50.865Z,21.4
2022-12-11T12:17:23.321Z,21.6
2022-12-11T12:18:25.826Z,21.4
2022-12-11T12:19:28.298Z,21.5
2022-12-11T12:20:30.790Z,21.5
2022-12-11T12:21:33.267Z,21.4
2022-12-11T12:22:35.749Z,21.4
2022-12-11T12:23:38.254Z,21.4
2022-12-11T12:24:40.842Z,21.4
2022-12-11T12:25:43.331Z,21.5
2022-12-11T12:26:45.818Z,21.5
2022-12-11T12:27:52.693Z,21.3
2022-12-11T12:28:53.060Z,21.4
2022-12-11T12:29:55.550Z,21.6
2022-12-11T12:30:57.768Z,21.3
2022-12-11T12:32:00.005Z,21.5
2022-12-11T12:33:02.154Z,21.5
2022-12-11T12:34:04.390Z,21.5
2022-12-11T12:35:06.605Z,21.5
2022-12-11T12:36:09.589Z,21.5
2022-12-11T12:37:12.076Z,21.5
2022-12-11T12:38:14.301Z,21.5
2022-12-11T12:39:16.536Z,21.5
2022-12-11T12:40:19.109Z,21.6
2022-12-11T12:41:21.022Z,21.5
2022-12-11T12:42:23.511Z,21.5
2022-12-11T12:43:25.994Z,21.5
2022-12-11T12:44:28.186Z,21.3
2022-12-11T12:45:30.429Z,21.4
2022-12-11T12:46:32.960Z,21.5
2022-12-11T12:47:35.435Z,21.5
2022-12-11T12:48:37.636Z,21.5
2022-12-11T12:49:39.578Z,21.5
2022-12-11T12:50:42.075Z,21.6
2022-12-11T12:51:44.261Z,21.3
2022-12-11T12:52:46.485Z,21.4
2022-12-11T12:53:48.684Z,21.4
2022-12-11T12:54:51.229Z,21.6
2022-12-11T12:55:58.211Z,21.3
2022-12-11T12:57:00.470Z,21.5
2022-12-11T12:58:02.121Z,21.4
2022-12-11T12:59:04.626Z,21.4
2022-12-11T13:00:12.787Z,21.5
2022-12-11T13:01:12.150Z,21.5
2022-12-11T13:02:15.011Z,21.4
2022-12-11T13:03:17.335Z,21.6
2022-12-11T13:04:39.525Z,21.3
2022-12-11T13:05:24.732Z,21.5
2022-12-11T13:06:27.229Z,21.5
2022-12-11T13:07:29.431Z,21.4
2022-12-11T13:08:32.265Z,21.4
2022-12-11T13:09:35.044Z,21.5
2022-12-11T13:10:37.561Z,21.4
2022-12-11T13:11:39.808Z,21.4
2022-12-11T13:12:41.766Z,21.6
2022-12-11T13:13:43.696Z,21.6
2022-12-11T13:14:50.155Z,21.7
2022-12-11T13:15:52.352Z,21.6
2022-12-11T13:16:54.286Z,21.6
2022-12-11T13:17:56.797Z,21.4
2022-12-11T13:18:58.572Z,21.5
2022-12-11T13:20:01.054Z,21.6
2022-12-11T13:21:03.258Z,21.4
2022-12-11T13:22:05.455Z,21.3
2022-12-11T13:23:07.950Z,21.6
2022-12-11T13:24:10.462Z,21.6
2022-12-11T13:25:12.979Z,21.5
2022-12-11T13:26:15.693Z,21.6
2022-12-11T13:27:18.264Z,21.5
2022-12-11T13:28:20.526Z,21.5
2022-12-11T13:29:22.449Z,21.5
2022-12-11T13:30:24.663Z,21.5
2022-12-11T13:31:26.941Z,21.4
2022-12-11T13:32:29.362Z,21.5
2022-12-11T13:33:31.844Z,21.5
2022-12-11T13:34:34.345Z,21.5
2022-12-11T13:35:36.560Z,21.5
2022-12-11T13:36:39.060Z,21.5
2022-12-11T13:37:41.272Z,21.5
2022-12-11T13:38:43.487Z,21.5
2022-12-11T13:39:45.969Z,21.6
2022-12-11T13:40:47.906Z,21.5
2022-12-11T13:41:50.435Z,21.5
2022-12-11T13:42:53.043Z,21.5
2022-12-11T13:43:55.399Z,21.5
2022-12-11T13:44:57.745Z,21.5
2022-12-11T13:45:59.440Z,21.6
2022-12-11T13:47:02.362Z,21.7
2022-12-11T13:48:04.304Z,21.5
2022-12-11T13:49:06.266Z,21.6
2022-12-11T13:50:08.580Z,21.5
2022-12-11T13:51:11.058Z,21.4
2022-12-11T13:52:13.260Z,21.4
2022-12-11T13:53:15.488Z,21.5
2022-12-11T13:54:17.883Z,21.4
2022-12-11T13:55:20.411Z,21.5
2022-12-11T13:56:22.897Z,21.5
2022-12-11T13:57:25.416Z,21.6
2022-12-11T13:58:28.006Z,21.5